<?xml version="1.0" encoding="UTF-8" standalone="no" ?>
<gpx xmlns="http://www.topografix.com/GPX/1/1" xmlns:xsi="http://www.w3.org/2001/XMLSchema-instance" xsi:schemaLocation="http://www.topografix.com/GPX/1/1 http://www.topografix.com/GPX/1/1/gpx.xsd" version="1.1" creator="VisuGPX - https://www.visugpx.com">
  <metadata>
    <name>Ambialet 2016-04-20</name>
    <desc><![CDATA[
]]></desc>
  </metadata>
  <trk>
    <name><![CDATA[Ambialet 2016-04-20]]></name>
    <trkseg>
      <trkpt lat="43.94717" lon="2.37853">
        <ele>195.7</ele>
        <time>2016-04-20T11:16:35Z</time>
      </trkpt>
      <trkpt lat="43.94717" lon="2.37853">
        <ele>195.9</ele>
        <time>2016-04-20T11:16:36Z</time>
      </trkpt>
      <trkpt lat="43.94709" lon="2.37858">
        <ele>197.2</ele>
        <time>2016-04-20T11:16:51Z</time>
      </trkpt>
      <trkpt lat="43.94701" lon="2.37866">
        <ele>197.7</ele>
        <time>2016-04-20T11:17:22Z</time>
      </trkpt>
      <trkpt lat="43.94694" lon="2.37876">
        <ele>197.7</ele>
        <time>2016-04-20T11:17:30Z</time>
      </trkpt>
      <trkpt lat="43.94687" lon="2.37886">
        <ele>198</ele>
        <time>2016-04-20T11:17:38Z</time>
      </trkpt>
      <trkpt lat="43.9468" lon="2.37896">
        <ele>198.1</ele>
        <time>2016-04-20T11:17:46Z</time>
      </trkpt>
      <trkpt lat="43.94673" lon="2.37904">
        <ele>198.3</ele>
        <time>2016-04-20T11:17:56Z</time>
      </trkpt>
      <trkpt lat="43.94675" lon="2.37917">
        <ele>199</ele>
        <time>2016-04-20T11:18:14Z</time>
      </trkpt>
      <trkpt lat="43.94678" lon="2.37904">
        <ele>199.4</ele>
        <time>2016-04-20T11:19:33Z</time>
      </trkpt>
      <trkpt lat="43.94675" lon="2.37892">
        <ele>199.7</ele>
        <time>2016-04-20T11:19:42Z</time>
      </trkpt>
      <trkpt lat="43.94668" lon="2.37882">
        <ele>199.9</ele>
        <time>2016-04-20T11:19:50Z</time>
      </trkpt>
      <trkpt lat="43.94662" lon="2.37872">
        <ele>200</ele>
        <time>2016-04-20T11:19:58Z</time>
      </trkpt>
      <trkpt lat="43.94654" lon="2.37864">
        <ele>200.1</ele>
        <time>2016-04-20T11:20:08Z</time>
      </trkpt>
      <trkpt lat="43.94645" lon="2.3786">
        <ele>200.2</ele>
        <time>2016-04-20T11:20:19Z</time>
      </trkpt>
      <trkpt lat="43.94633" lon="2.37854">
        <ele>200.7</ele>
        <time>2016-04-20T11:20:46Z</time>
      </trkpt>
      <trkpt lat="43.94624" lon="2.3785">
        <ele>201</ele>
        <time>2016-04-20T11:20:54Z</time>
      </trkpt>
      <trkpt lat="43.94615" lon="2.37845">
        <ele>201.3</ele>
        <time>2016-04-20T11:21:03Z</time>
      </trkpt>
      <trkpt lat="43.94605" lon="2.37845">
        <ele>201.6</ele>
        <time>2016-04-20T11:21:16Z</time>
      </trkpt>
      <trkpt lat="43.94596" lon="2.37846">
        <ele>201.9</ele>
        <time>2016-04-20T11:21:32Z</time>
      </trkpt>
      <trkpt lat="43.94586" lon="2.37842">
        <ele>202.1</ele>
        <time>2016-04-20T11:21:36Z</time>
      </trkpt>
      <trkpt lat="43.94577" lon="2.37841">
        <ele>202.5</ele>
        <time>2016-04-20T11:21:44Z</time>
      </trkpt>
      <trkpt lat="43.94567" lon="2.3784">
        <ele>202.8</ele>
        <time>2016-04-20T11:21:53Z</time>
      </trkpt>
      <trkpt lat="43.94558" lon="2.37838">
        <ele>203.1</ele>
        <time>2016-04-20T11:22:00Z</time>
      </trkpt>
      <trkpt lat="43.94548" lon="2.37834">
        <ele>203.4</ele>
        <time>2016-04-20T11:22:06Z</time>
      </trkpt>
      <trkpt lat="43.9454" lon="2.3783">
        <ele>204</ele>
        <time>2016-04-20T11:22:13Z</time>
      </trkpt>
      <trkpt lat="43.94533" lon="2.37821">
        <ele>205</ele>
        <time>2016-04-20T11:22:22Z</time>
      </trkpt>
      <trkpt lat="43.94524" lon="2.37814">
        <ele>206.7</ele>
        <time>2016-04-20T11:22:40Z</time>
      </trkpt>
      <trkpt lat="43.94514" lon="2.37808">
        <ele>207.3</ele>
        <time>2016-04-20T11:22:46Z</time>
      </trkpt>
      <trkpt lat="43.94508" lon="2.37797">
        <ele>208.1</ele>
        <time>2016-04-20T11:22:54Z</time>
      </trkpt>
      <trkpt lat="43.945" lon="2.37791">
        <ele>209</ele>
        <time>2016-04-20T11:23:03Z</time>
      </trkpt>
      <trkpt lat="43.94491" lon="2.37793">
        <ele>209.9</ele>
        <time>2016-04-20T11:23:12Z</time>
      </trkpt>
      <trkpt lat="43.94482" lon="2.37789">
        <ele>210.5</ele>
        <time>2016-04-20T11:23:19Z</time>
      </trkpt>
      <trkpt lat="43.94477" lon="2.37778">
        <ele>211.3</ele>
        <time>2016-04-20T11:23:26Z</time>
      </trkpt>
      <trkpt lat="43.9447" lon="2.37771">
        <ele>212.1</ele>
        <time>2016-04-20T11:23:35Z</time>
      </trkpt>
      <trkpt lat="43.94462" lon="2.37761">
        <ele>212.5</ele>
        <time>2016-04-20T11:23:42Z</time>
      </trkpt>
      <trkpt lat="43.94455" lon="2.37751">
        <ele>212.7</ele>
        <time>2016-04-20T11:23:50Z</time>
      </trkpt>
      <trkpt lat="43.94449" lon="2.37741">
        <ele>212.8</ele>
        <time>2016-04-20T11:23:57Z</time>
      </trkpt>
      <trkpt lat="43.94443" lon="2.37731">
        <ele>212.9</ele>
        <time>2016-04-20T11:24:05Z</time>
      </trkpt>
      <trkpt lat="43.94437" lon="2.3772">
        <ele>213</ele>
        <time>2016-04-20T11:24:13Z</time>
      </trkpt>
      <trkpt lat="43.94434" lon="2.37707">
        <ele>213.1</ele>
        <time>2016-04-20T11:24:21Z</time>
      </trkpt>
      <trkpt lat="43.94432" lon="2.37693">
        <ele>213.6</ele>
        <time>2016-04-20T11:24:29Z</time>
      </trkpt>
      <trkpt lat="43.94426" lon="2.37681">
        <ele>213</ele>
        <time>2016-04-20T11:24:37Z</time>
      </trkpt>
      <trkpt lat="43.94424" lon="2.37668">
        <ele>213</ele>
        <time>2016-04-20T11:24:44Z</time>
      </trkpt>
      <trkpt lat="43.9442" lon="2.37656">
        <ele>213</ele>
        <time>2016-04-20T11:24:51Z</time>
      </trkpt>
      <trkpt lat="43.94413" lon="2.37645">
        <ele>212.7</ele>
        <time>2016-04-20T11:24:58Z</time>
      </trkpt>
      <trkpt lat="43.94406" lon="2.37635">
        <ele>212.6</ele>
        <time>2016-04-20T11:25:11Z</time>
      </trkpt>
      <trkpt lat="43.94399" lon="2.37626">
        <ele>212.6</ele>
        <time>2016-04-20T11:25:21Z</time>
      </trkpt>
      <trkpt lat="43.94393" lon="2.37617">
        <ele>212.9</ele>
        <time>2016-04-20T11:25:28Z</time>
      </trkpt>
      <trkpt lat="43.94389" lon="2.37605">
        <ele>213.2</ele>
        <time>2016-04-20T11:25:39Z</time>
      </trkpt>
      <trkpt lat="43.94381" lon="2.37599">
        <ele>213.5</ele>
        <time>2016-04-20T11:25:58Z</time>
      </trkpt>
      <trkpt lat="43.94374" lon="2.37608">
        <ele>215.7</ele>
        <time>2016-04-20T11:26:11Z</time>
      </trkpt>
      <trkpt lat="43.9437" lon="2.37596">
        <ele>218.3</ele>
        <time>2016-04-20T11:26:23Z</time>
      </trkpt>
      <trkpt lat="43.94371" lon="2.37582">
        <ele>220.3</ele>
        <time>2016-04-20T11:26:32Z</time>
      </trkpt>
      <trkpt lat="43.94362" lon="2.37583">
        <ele>225</ele>
        <time>2016-04-20T11:26:50Z</time>
      </trkpt>
      <trkpt lat="43.94358" lon="2.37572">
        <ele>228.2</ele>
        <time>2016-04-20T11:27:04Z</time>
      </trkpt>
      <trkpt lat="43.94359" lon="2.37585">
        <ele>232.2</ele>
        <time>2016-04-20T11:27:25Z</time>
      </trkpt>
      <trkpt lat="43.94359" lon="2.37598">
        <ele>233.7</ele>
        <time>2016-04-20T11:27:37Z</time>
      </trkpt>
      <trkpt lat="43.94365" lon="2.37608">
        <ele>234.4</ele>
        <time>2016-04-20T11:27:45Z</time>
      </trkpt>
      <trkpt lat="43.9437" lon="2.37619">
        <ele>234.5</ele>
        <time>2016-04-20T11:27:55Z</time>
      </trkpt>
      <trkpt lat="43.94368" lon="2.37632">
        <ele>235.8</ele>
        <time>2016-04-20T11:28:07Z</time>
      </trkpt>
      <trkpt lat="43.94359" lon="2.37632">
        <ele>238.8</ele>
        <time>2016-04-20T11:28:21Z</time>
      </trkpt>
      <trkpt lat="43.94351" lon="2.37624">
        <ele>241.7</ele>
        <time>2016-04-20T11:28:34Z</time>
      </trkpt>
      <trkpt lat="43.94342" lon="2.37627">
        <ele>246.2</ele>
        <time>2016-04-20T11:28:52Z</time>
      </trkpt>
      <trkpt lat="43.94343" lon="2.3764">
        <ele>249.9</ele>
        <time>2016-04-20T11:29:07Z</time>
      </trkpt>
      <trkpt lat="43.94349" lon="2.3765">
        <ele>252.5</ele>
        <time>2016-04-20T11:29:16Z</time>
      </trkpt>
      <trkpt lat="43.94344" lon="2.37661">
        <ele>257.9</ele>
        <time>2016-04-20T11:29:34Z</time>
      </trkpt>
      <trkpt lat="43.94336" lon="2.37654">
        <ele>261.6</ele>
        <time>2016-04-20T11:29:48Z</time>
      </trkpt>
      <trkpt lat="43.94327" lon="2.37649">
        <ele>264.8</ele>
        <time>2016-04-20T11:30:00Z</time>
      </trkpt>
      <trkpt lat="43.94317" lon="2.37646">
        <ele>267.1</ele>
        <time>2016-04-20T11:30:09Z</time>
      </trkpt>
      <trkpt lat="43.94308" lon="2.37645">
        <ele>269</ele>
        <time>2016-04-20T11:30:18Z</time>
      </trkpt>
      <trkpt lat="43.94299" lon="2.37641">
        <ele>272.7</ele>
        <time>2016-04-20T11:30:35Z</time>
      </trkpt>
      <trkpt lat="43.9429" lon="2.37636">
        <ele>283.1</ele>
        <time>2016-04-20T11:31:14Z</time>
      </trkpt>
      <trkpt lat="43.94285" lon="2.37647">
        <ele>290</ele>
        <time>2016-04-20T11:31:45Z</time>
      </trkpt>
      <trkpt lat="43.94295" lon="2.37655">
        <ele>291.6</ele>
        <time>2016-04-20T11:31:54Z</time>
      </trkpt>
      <trkpt lat="43.94301" lon="2.37665">
        <ele>292.9</ele>
        <time>2016-04-20T11:32:01Z</time>
      </trkpt>
      <trkpt lat="43.94303" lon="2.37678">
        <ele>294.5</ele>
        <time>2016-04-20T11:32:10Z</time>
      </trkpt>
      <trkpt lat="43.94294" lon="2.37677">
        <ele>299.4</ele>
        <time>2016-04-20T11:38:45Z</time>
      </trkpt>
      <trkpt lat="43.94285" lon="2.37674">
        <ele>301.6</ele>
        <time>2016-04-20T11:38:54Z</time>
      </trkpt>
      <trkpt lat="43.94276" lon="2.37671">
        <ele>304.5</ele>
        <time>2016-04-20T11:39:05Z</time>
      </trkpt>
      <trkpt lat="43.94268" lon="2.37664">
        <ele>307.2</ele>
        <time>2016-04-20T11:39:15Z</time>
      </trkpt>
      <trkpt lat="43.94264" lon="2.37652">
        <ele>309.8</ele>
        <time>2016-04-20T11:39:24Z</time>
      </trkpt>
      <trkpt lat="43.94255" lon="2.37655">
        <ele>314.5</ele>
        <time>2016-04-20T11:39:42Z</time>
      </trkpt>
      <trkpt lat="43.9425" lon="2.37644">
        <ele>316.5</ele>
        <time>2016-04-20T11:39:51Z</time>
      </trkpt>
      <trkpt lat="43.94244" lon="2.37632">
        <ele>318.3</ele>
        <time>2016-04-20T11:39:59Z</time>
      </trkpt>
      <trkpt lat="43.94239" lon="2.3762">
        <ele>319.7</ele>
        <time>2016-04-20T11:40:09Z</time>
      </trkpt>
      <trkpt lat="43.94237" lon="2.37607">
        <ele>320.3</ele>
        <time>2016-04-20T11:40:18Z</time>
      </trkpt>
      <trkpt lat="43.9424" lon="2.37594">
        <ele>320.5</ele>
        <time>2016-04-20T11:40:23Z</time>
      </trkpt>
      <trkpt lat="43.94244" lon="2.37583">
        <ele>320.7</ele>
        <time>2016-04-20T11:40:27Z</time>
      </trkpt>
      <trkpt lat="43.94248" lon="2.37571">
        <ele>321.6</ele>
        <time>2016-04-20T11:40:35Z</time>
      </trkpt>
      <trkpt lat="43.94239" lon="2.37567">
        <ele>326.8</ele>
        <time>2016-04-20T11:41:38Z</time>
      </trkpt>
      <trkpt lat="43.94231" lon="2.3756">
        <ele>329.3</ele>
        <time>2016-04-20T11:41:53Z</time>
      </trkpt>
      <trkpt lat="43.94225" lon="2.3755">
        <ele>336.5</ele>
        <time>2016-04-20T11:42:24Z</time>
      </trkpt>
      <trkpt lat="43.9423" lon="2.37539">
        <ele>339.1</ele>
        <time>2016-04-20T11:42:36Z</time>
      </trkpt>
      <trkpt lat="43.94223" lon="2.37529">
        <ele>345</ele>
        <time>2016-04-20T11:43:03Z</time>
      </trkpt>
      <trkpt lat="43.94224" lon="2.37517">
        <ele>348.9</ele>
        <time>2016-04-20T11:43:19Z</time>
      </trkpt>
      <trkpt lat="43.94225" lon="2.37504">
        <ele>350.4</ele>
        <time>2016-04-20T11:43:26Z</time>
      </trkpt>
      <trkpt lat="43.94217" lon="2.37511">
        <ele>353.8</ele>
        <time>2016-04-20T11:43:39Z</time>
      </trkpt>
      <trkpt lat="43.94213" lon="2.375">
        <ele>359</ele>
        <time>2016-04-20T11:44:01Z</time>
      </trkpt>
      <trkpt lat="43.94213" lon="2.37488">
        <ele>365.1</ele>
        <time>2016-04-20T11:44:22Z</time>
      </trkpt>
      <trkpt lat="43.94204" lon="2.37485">
        <ele>369.5</ele>
        <time>2016-04-20T11:44:39Z</time>
      </trkpt>
      <trkpt lat="43.94195" lon="2.37481">
        <ele>372.8</ele>
        <time>2016-04-20T11:44:51Z</time>
      </trkpt>
      <trkpt lat="43.94187" lon="2.37475">
        <ele>375.7</ele>
        <time>2016-04-20T11:45:05Z</time>
      </trkpt>
      <trkpt lat="43.94181" lon="2.37463">
        <ele>378.1</ele>
        <time>2016-04-20T11:45:15Z</time>
      </trkpt>
      <trkpt lat="43.94174" lon="2.37453">
        <ele>379.8</ele>
        <time>2016-04-20T11:45:23Z</time>
      </trkpt>
      <trkpt lat="43.9417" lon="2.37442">
        <ele>381.4</ele>
        <time>2016-04-20T11:45:32Z</time>
      </trkpt>
      <trkpt lat="43.94162" lon="2.37446">
        <ele>383.9</ele>
        <time>2016-04-20T11:45:46Z</time>
      </trkpt>
      <trkpt lat="43.94157" lon="2.37434">
        <ele>386.6</ele>
        <time>2016-04-20T11:45:58Z</time>
      </trkpt>
      <trkpt lat="43.94152" lon="2.37423">
        <ele>388.5</ele>
        <time>2016-04-20T11:46:08Z</time>
      </trkpt>
      <trkpt lat="43.94146" lon="2.37412">
        <ele>390.6</ele>
        <time>2016-04-20T11:46:18Z</time>
      </trkpt>
      <trkpt lat="43.9414" lon="2.37404">
        <ele>392.8</ele>
        <time>2016-04-20T11:46:28Z</time>
      </trkpt>
      <trkpt lat="43.94133" lon="2.37394">
        <ele>395.4</ele>
        <time>2016-04-20T11:46:42Z</time>
      </trkpt>
      <trkpt lat="43.94128" lon="2.37384">
        <ele>397.7</ele>
        <time>2016-04-20T11:46:53Z</time>
      </trkpt>
      <trkpt lat="43.94125" lon="2.37371">
        <ele>399.5</ele>
        <time>2016-04-20T11:47:03Z</time>
      </trkpt>
      <trkpt lat="43.9412" lon="2.37359">
        <ele>400.8</ele>
        <time>2016-04-20T11:47:13Z</time>
      </trkpt>
      <trkpt lat="43.94117" lon="2.3737">
        <ele>405.1</ele>
        <time>2016-04-20T11:47:37Z</time>
      </trkpt>
      <trkpt lat="43.94115" lon="2.37383">
        <ele>407</ele>
        <time>2016-04-20T11:47:46Z</time>
      </trkpt>
      <trkpt lat="43.94111" lon="2.37395">
        <ele>408.9</ele>
        <time>2016-04-20T11:47:55Z</time>
      </trkpt>
      <trkpt lat="43.94102" lon="2.37398">
        <ele>411.8</ele>
        <time>2016-04-20T11:48:10Z</time>
      </trkpt>
      <trkpt lat="43.94096" lon="2.37387">
        <ele>413.6</ele>
        <time>2016-04-20T11:48:18Z</time>
      </trkpt>
      <trkpt lat="43.94092" lon="2.37374">
        <ele>415.2</ele>
        <time>2016-04-20T11:48:27Z</time>
      </trkpt>
      <trkpt lat="43.94088" lon="2.37363">
        <ele>416.4</ele>
        <time>2016-04-20T11:48:35Z</time>
      </trkpt>
      <trkpt lat="43.94084" lon="2.37374">
        <ele>419.7</ele>
        <time>2016-04-20T11:48:58Z</time>
      </trkpt>
      <trkpt lat="43.94078" lon="2.37385">
        <ele>420.6</ele>
        <time>2016-04-20T11:49:07Z</time>
      </trkpt>
      <trkpt lat="43.94067" lon="2.37393">
        <ele>427.9</ele>
        <time>2016-04-20T12:03:43Z</time>
      </trkpt>
      <trkpt lat="43.94074" lon="2.37382">
        <ele>427.5</ele>
        <time>2016-04-20T12:03:51Z</time>
      </trkpt>
      <trkpt lat="43.94079" lon="2.37371">
        <ele>426.9</ele>
        <time>2016-04-20T12:04:01Z</time>
      </trkpt>
      <trkpt lat="43.94085" lon="2.3736">
        <ele>425.9</ele>
        <time>2016-04-20T12:04:12Z</time>
      </trkpt>
      <trkpt lat="43.94086" lon="2.37347">
        <ele>424.8</ele>
        <time>2016-04-20T12:04:23Z</time>
      </trkpt>
      <trkpt lat="43.94091" lon="2.37336">
        <ele>423.7</ele>
        <time>2016-04-20T12:04:31Z</time>
      </trkpt>
      <trkpt lat="43.94092" lon="2.37322">
        <ele>422.1</ele>
        <time>2016-04-20T12:04:42Z</time>
      </trkpt>
      <trkpt lat="43.94092" lon="2.3731">
        <ele>420.4</ele>
        <time>2016-04-20T12:04:53Z</time>
      </trkpt>
      <trkpt lat="43.94092" lon="2.37297">
        <ele>418.8</ele>
        <time>2016-04-20T12:05:03Z</time>
      </trkpt>
      <trkpt lat="43.94092" lon="2.37283">
        <ele>417.8</ele>
        <time>2016-04-20T12:05:13Z</time>
      </trkpt>
      <trkpt lat="43.94091" lon="2.37269">
        <ele>416.6</ele>
        <time>2016-04-20T12:05:23Z</time>
      </trkpt>
      <trkpt lat="43.94089" lon="2.37256">
        <ele>414.9</ele>
        <time>2016-04-20T12:05:33Z</time>
      </trkpt>
      <trkpt lat="43.94085" lon="2.37243">
        <ele>413.9</ele>
        <time>2016-04-20T12:05:41Z</time>
      </trkpt>
      <trkpt lat="43.94079" lon="2.37235">
        <ele>412.8</ele>
        <time>2016-04-20T12:05:49Z</time>
      </trkpt>
      <trkpt lat="43.94071" lon="2.37226">
        <ele>411.7</ele>
        <time>2016-04-20T12:05:59Z</time>
      </trkpt>
      <trkpt lat="43.94063" lon="2.37218">
        <ele>410.7</ele>
        <time>2016-04-20T12:06:08Z</time>
      </trkpt>
      <trkpt lat="43.94057" lon="2.37208">
        <ele>410</ele>
        <time>2016-04-20T12:06:15Z</time>
      </trkpt>
      <trkpt lat="43.94053" lon="2.37195">
        <ele>409.3</ele>
        <time>2016-04-20T12:06:23Z</time>
      </trkpt>
      <trkpt lat="43.94046" lon="2.37186">
        <ele>408.4</ele>
        <time>2016-04-20T12:06:32Z</time>
      </trkpt>
      <trkpt lat="43.94038" lon="2.3718">
        <ele>407.4</ele>
        <time>2016-04-20T12:06:43Z</time>
      </trkpt>
      <trkpt lat="43.94028" lon="2.37177">
        <ele>406.4</ele>
        <time>2016-04-20T12:06:53Z</time>
      </trkpt>
      <trkpt lat="43.94019" lon="2.37177">
        <ele>405.3</ele>
        <time>2016-04-20T12:07:02Z</time>
      </trkpt>
      <trkpt lat="43.9401" lon="2.37179">
        <ele>404.1</ele>
        <time>2016-04-20T12:07:10Z</time>
      </trkpt>
      <trkpt lat="43.94" lon="2.37179">
        <ele>403.2</ele>
        <time>2016-04-20T12:07:19Z</time>
      </trkpt>
      <trkpt lat="43.9399" lon="2.37178">
        <ele>402.1</ele>
        <time>2016-04-20T12:07:29Z</time>
      </trkpt>
      <trkpt lat="43.93981" lon="2.37177">
        <ele>401.1</ele>
        <time>2016-04-20T12:07:38Z</time>
      </trkpt>
      <trkpt lat="43.93971" lon="2.3718">
        <ele>400.4</ele>
        <time>2016-04-20T12:07:46Z</time>
      </trkpt>
      <trkpt lat="43.93962" lon="2.37183">
        <ele>399.7</ele>
        <time>2016-04-20T12:07:51Z</time>
      </trkpt>
      <trkpt lat="43.93953" lon="2.37183">
        <ele>398.6</ele>
        <time>2016-04-20T12:08:00Z</time>
      </trkpt>
      <trkpt lat="43.93944" lon="2.37188">
        <ele>397.5</ele>
        <time>2016-04-20T12:08:10Z</time>
      </trkpt>
      <trkpt lat="43.93935" lon="2.37191">
        <ele>396.9</ele>
        <time>2016-04-20T12:08:18Z</time>
      </trkpt>
      <trkpt lat="43.93925" lon="2.37193">
        <ele>396.1</ele>
        <time>2016-04-20T12:08:26Z</time>
      </trkpt>
      <trkpt lat="43.93916" lon="2.37195">
        <ele>395.5</ele>
        <time>2016-04-20T12:08:34Z</time>
      </trkpt>
      <trkpt lat="43.93906" lon="2.37196">
        <ele>394.7</ele>
        <time>2016-04-20T12:08:42Z</time>
      </trkpt>
      <trkpt lat="43.93896" lon="2.37197">
        <ele>393.8</ele>
        <time>2016-04-20T12:08:50Z</time>
      </trkpt>
      <trkpt lat="43.93887" lon="2.37198">
        <ele>393</ele>
        <time>2016-04-20T12:08:58Z</time>
      </trkpt>
      <trkpt lat="43.93877" lon="2.37201">
        <ele>392.4</ele>
        <time>2016-04-20T12:09:06Z</time>
      </trkpt>
      <trkpt lat="43.93867" lon="2.37201">
        <ele>392</ele>
        <time>2016-04-20T12:09:13Z</time>
      </trkpt>
      <trkpt lat="43.93858" lon="2.37201">
        <ele>391.7</ele>
        <time>2016-04-20T12:09:20Z</time>
      </trkpt>
      <trkpt lat="43.93848" lon="2.37202">
        <ele>391.6</ele>
        <time>2016-04-20T12:09:34Z</time>
      </trkpt>
      <trkpt lat="43.93838" lon="2.37203">
        <ele>392</ele>
        <time>2016-04-20T12:09:43Z</time>
      </trkpt>
      <trkpt lat="43.93829" lon="2.37203">
        <ele>392.5</ele>
        <time>2016-04-20T12:09:51Z</time>
      </trkpt>
      <trkpt lat="43.9382" lon="2.37203">
        <ele>392.8</ele>
        <time>2016-04-20T12:09:57Z</time>
      </trkpt>
      <trkpt lat="43.9381" lon="2.37202">
        <ele>392.7</ele>
        <time>2016-04-20T12:10:05Z</time>
      </trkpt>
      <trkpt lat="43.938" lon="2.37203">
        <ele>392.6</ele>
        <time>2016-04-20T12:10:13Z</time>
      </trkpt>
      <trkpt lat="43.93791" lon="2.37205">
        <ele>392.4</ele>
        <time>2016-04-20T12:10:21Z</time>
      </trkpt>
      <trkpt lat="43.93782" lon="2.37207">
        <ele>391.8</ele>
        <time>2016-04-20T12:10:29Z</time>
      </trkpt>
      <trkpt lat="43.93773" lon="2.37206">
        <ele>391.4</ele>
        <time>2016-04-20T12:10:37Z</time>
      </trkpt>
      <trkpt lat="43.93764" lon="2.37207">
        <ele>390.9</ele>
        <time>2016-04-20T12:10:45Z</time>
      </trkpt>
      <trkpt lat="43.93754" lon="2.37209">
        <ele>389.8</ele>
        <time>2016-04-20T12:10:55Z</time>
      </trkpt>
      <trkpt lat="43.93744" lon="2.37209">
        <ele>388.8</ele>
        <time>2016-04-20T12:11:04Z</time>
      </trkpt>
      <trkpt lat="43.93735" lon="2.37209">
        <ele>388</ele>
        <time>2016-04-20T12:11:12Z</time>
      </trkpt>
      <trkpt lat="43.93726" lon="2.37207">
        <ele>387.5</ele>
        <time>2016-04-20T12:11:20Z</time>
      </trkpt>
      <trkpt lat="43.93716" lon="2.37208">
        <ele>386.5</ele>
        <time>2016-04-20T12:11:29Z</time>
      </trkpt>
      <trkpt lat="43.93706" lon="2.37208">
        <ele>385.6</ele>
        <time>2016-04-20T12:11:38Z</time>
      </trkpt>
      <trkpt lat="43.93696" lon="2.37206">
        <ele>384.8</ele>
        <time>2016-04-20T12:11:46Z</time>
      </trkpt>
      <trkpt lat="43.93687" lon="2.37206">
        <ele>383.8</ele>
        <time>2016-04-20T12:11:54Z</time>
      </trkpt>
      <trkpt lat="43.93678" lon="2.37209">
        <ele>383</ele>
        <time>2016-04-20T12:12:02Z</time>
      </trkpt>
      <trkpt lat="43.93669" lon="2.37212">
        <ele>382.5</ele>
        <time>2016-04-20T12:12:10Z</time>
      </trkpt>
      <trkpt lat="43.93661" lon="2.37219">
        <ele>381.6</ele>
        <time>2016-04-20T12:12:18Z</time>
      </trkpt>
      <trkpt lat="43.93651" lon="2.37222">
        <ele>380.4</ele>
        <time>2016-04-20T12:12:27Z</time>
      </trkpt>
      <trkpt lat="43.93641" lon="2.37222">
        <ele>379.4</ele>
        <time>2016-04-20T12:12:35Z</time>
      </trkpt>
      <trkpt lat="43.93633" lon="2.37216">
        <ele>378.3</ele>
        <time>2016-04-20T12:12:44Z</time>
      </trkpt>
      <trkpt lat="43.93626" lon="2.37207">
        <ele>377.5</ele>
        <time>2016-04-20T12:12:52Z</time>
      </trkpt>
      <trkpt lat="43.9362" lon="2.37197">
        <ele>375.8</ele>
        <time>2016-04-20T12:13:01Z</time>
      </trkpt>
      <trkpt lat="43.93614" lon="2.37187">
        <ele>374.1</ele>
        <time>2016-04-20T12:13:10Z</time>
      </trkpt>
      <trkpt lat="43.9361" lon="2.37175">
        <ele>372.7</ele>
        <time>2016-04-20T12:13:18Z</time>
      </trkpt>
      <trkpt lat="43.93606" lon="2.37164">
        <ele>371.6</ele>
        <time>2016-04-20T12:13:25Z</time>
      </trkpt>
      <trkpt lat="43.93602" lon="2.37153">
        <ele>370.7</ele>
        <time>2016-04-20T12:13:32Z</time>
      </trkpt>
      <trkpt lat="43.93601" lon="2.37139">
        <ele>369.9</ele>
        <time>2016-04-20T12:13:40Z</time>
      </trkpt>
      <trkpt lat="43.93597" lon="2.37128">
        <ele>369.3</ele>
        <time>2016-04-20T12:13:48Z</time>
      </trkpt>
      <trkpt lat="43.93592" lon="2.37117">
        <ele>365.7</ele>
        <time>2016-04-20T12:14:35Z</time>
      </trkpt>
      <trkpt lat="43.93589" lon="2.37105">
        <ele>365</ele>
        <time>2016-04-20T12:14:48Z</time>
      </trkpt>
      <trkpt lat="43.93585" lon="2.37093">
        <ele>364.4</ele>
        <time>2016-04-20T12:14:58Z</time>
      </trkpt>
      <trkpt lat="43.9358" lon="2.37082">
        <ele>363.9</ele>
        <time>2016-04-20T12:15:07Z</time>
      </trkpt>
      <trkpt lat="43.93576" lon="2.37071">
        <ele>363.4</ele>
        <time>2016-04-20T12:15:16Z</time>
      </trkpt>
      <trkpt lat="43.9357" lon="2.3706">
        <ele>362.7</ele>
        <time>2016-04-20T12:15:25Z</time>
      </trkpt>
      <trkpt lat="43.93564" lon="2.3705">
        <ele>361.8</ele>
        <time>2016-04-20T12:15:32Z</time>
      </trkpt>
      <trkpt lat="43.93559" lon="2.37039">
        <ele>360.8</ele>
        <time>2016-04-20T12:15:40Z</time>
      </trkpt>
      <trkpt lat="43.93555" lon="2.37028">
        <ele>360.1</ele>
        <time>2016-04-20T12:15:47Z</time>
      </trkpt>
      <trkpt lat="43.93553" lon="2.37015">
        <ele>359.5</ele>
        <time>2016-04-20T12:15:54Z</time>
      </trkpt>
      <trkpt lat="43.93549" lon="2.37004">
        <ele>358.8</ele>
        <time>2016-04-20T12:16:02Z</time>
      </trkpt>
      <trkpt lat="43.93546" lon="2.36991">
        <ele>357.7</ele>
        <time>2016-04-20T12:16:11Z</time>
      </trkpt>
      <trkpt lat="43.93544" lon="2.36977">
        <ele>356.8</ele>
        <time>2016-04-20T12:16:19Z</time>
      </trkpt>
      <trkpt lat="43.93541" lon="2.36965">
        <ele>356.1</ele>
        <time>2016-04-20T12:16:26Z</time>
      </trkpt>
      <trkpt lat="43.93538" lon="2.36951">
        <ele>355.3</ele>
        <time>2016-04-20T12:16:35Z</time>
      </trkpt>
      <trkpt lat="43.93535" lon="2.36938">
        <ele>354</ele>
        <time>2016-04-20T12:16:45Z</time>
      </trkpt>
      <trkpt lat="43.93532" lon="2.36925">
        <ele>352.9</ele>
        <time>2016-04-20T12:16:54Z</time>
      </trkpt>
      <trkpt lat="43.93528" lon="2.36913">
        <ele>352.1</ele>
        <time>2016-04-20T12:17:01Z</time>
      </trkpt>
      <trkpt lat="43.93525" lon="2.36901">
        <ele>351.2</ele>
        <time>2016-04-20T12:17:10Z</time>
      </trkpt>
      <trkpt lat="43.93521" lon="2.36888">
        <ele>350.2</ele>
        <time>2016-04-20T12:17:18Z</time>
      </trkpt>
      <trkpt lat="43.93517" lon="2.36876">
        <ele>348.9</ele>
        <time>2016-04-20T12:17:27Z</time>
      </trkpt>
      <trkpt lat="43.93512" lon="2.36864">
        <ele>347.4</ele>
        <time>2016-04-20T12:17:35Z</time>
      </trkpt>
      <trkpt lat="43.93508" lon="2.36852">
        <ele>345.9</ele>
        <time>2016-04-20T12:17:44Z</time>
      </trkpt>
      <trkpt lat="43.93504" lon="2.3684">
        <ele>344.9</ele>
        <time>2016-04-20T12:17:51Z</time>
      </trkpt>
      <trkpt lat="43.93499" lon="2.36829">
        <ele>344</ele>
        <time>2016-04-20T12:17:59Z</time>
      </trkpt>
      <trkpt lat="43.93494" lon="2.36817">
        <ele>343.2</ele>
        <time>2016-04-20T12:18:07Z</time>
      </trkpt>
      <trkpt lat="43.93489" lon="2.36806">
        <ele>342</ele>
        <time>2016-04-20T12:18:16Z</time>
      </trkpt>
      <trkpt lat="43.93485" lon="2.36794">
        <ele>340.5</ele>
        <time>2016-04-20T12:18:26Z</time>
      </trkpt>
      <trkpt lat="43.93478" lon="2.36784">
        <ele>339.3</ele>
        <time>2016-04-20T12:18:34Z</time>
      </trkpt>
      <trkpt lat="43.93474" lon="2.36773">
        <ele>338.4</ele>
        <time>2016-04-20T12:18:42Z</time>
      </trkpt>
      <trkpt lat="43.93467" lon="2.36763">
        <ele>337.5</ele>
        <time>2016-04-20T12:18:51Z</time>
      </trkpt>
      <trkpt lat="43.93461" lon="2.36754">
        <ele>336.8</ele>
        <time>2016-04-20T12:18:59Z</time>
      </trkpt>
      <trkpt lat="43.93454" lon="2.36744">
        <ele>336.4</ele>
        <time>2016-04-20T12:19:04Z</time>
      </trkpt>
      <trkpt lat="43.93448" lon="2.36733">
        <ele>335.3</ele>
        <time>2016-04-20T12:19:14Z</time>
      </trkpt>
      <trkpt lat="43.93442" lon="2.36724">
        <ele>334</ele>
        <time>2016-04-20T12:19:23Z</time>
      </trkpt>
      <trkpt lat="43.93436" lon="2.36714">
        <ele>332.8</ele>
        <time>2016-04-20T12:19:32Z</time>
      </trkpt>
      <trkpt lat="43.9343" lon="2.36704">
        <ele>332.1</ele>
        <time>2016-04-20T12:19:40Z</time>
      </trkpt>
      <trkpt lat="43.93422" lon="2.36698">
        <ele>330.9</ele>
        <time>2016-04-20T12:19:47Z</time>
      </trkpt>
      <trkpt lat="43.93413" lon="2.36695">
        <ele>330.2</ele>
        <time>2016-04-20T12:19:55Z</time>
      </trkpt>
      <trkpt lat="43.93404" lon="2.3669">
        <ele>329.7</ele>
        <time>2016-04-20T12:20:05Z</time>
      </trkpt>
      <trkpt lat="43.93396" lon="2.3668">
        <ele>329.5</ele>
        <time>2016-04-20T12:20:12Z</time>
      </trkpt>
      <trkpt lat="43.93391" lon="2.3667">
        <ele>329.5</ele>
        <time>2016-04-20T12:20:16Z</time>
      </trkpt>
      <trkpt lat="43.9339" lon="2.36656">
        <ele>329.4</ele>
        <time>2016-04-20T12:20:22Z</time>
      </trkpt>
      <trkpt lat="43.93398" lon="2.36651">
        <ele>329.3</ele>
        <time>2016-04-20T12:20:29Z</time>
      </trkpt>
      <trkpt lat="43.93407" lon="2.3665">
        <ele>329</ele>
        <time>2016-04-20T12:20:37Z</time>
      </trkpt>
      <trkpt lat="43.93416" lon="2.36652">
        <ele>328.4</ele>
        <time>2016-04-20T12:20:45Z</time>
      </trkpt>
      <trkpt lat="43.93426" lon="2.36654">
        <ele>327.7</ele>
        <time>2016-04-20T12:20:56Z</time>
      </trkpt>
      <trkpt lat="43.93435" lon="2.36658">
        <ele>326.8</ele>
        <time>2016-04-20T12:21:04Z</time>
      </trkpt>
      <trkpt lat="43.93444" lon="2.36662">
        <ele>326.2</ele>
        <time>2016-04-20T12:21:12Z</time>
      </trkpt>
      <trkpt lat="43.93453" lon="2.36666">
        <ele>325.7</ele>
        <time>2016-04-20T12:21:19Z</time>
      </trkpt>
      <trkpt lat="43.93463" lon="2.3667">
        <ele>324.7</ele>
        <time>2016-04-20T12:21:29Z</time>
      </trkpt>
      <trkpt lat="43.93472" lon="2.36674">
        <ele>323.9</ele>
        <time>2016-04-20T12:21:38Z</time>
      </trkpt>
      <trkpt lat="43.93482" lon="2.36678">
        <ele>322.8</ele>
        <time>2016-04-20T12:21:46Z</time>
      </trkpt>
      <trkpt lat="43.93492" lon="2.3668">
        <ele>321.9</ele>
        <time>2016-04-20T12:21:54Z</time>
      </trkpt>
      <trkpt lat="43.93503" lon="2.36684">
        <ele>321.1</ele>
        <time>2016-04-20T12:22:02Z</time>
      </trkpt>
      <trkpt lat="43.93511" lon="2.36689">
        <ele>320.1</ele>
        <time>2016-04-20T12:22:09Z</time>
      </trkpt>
      <trkpt lat="43.93522" lon="2.36694">
        <ele>319.2</ele>
        <time>2016-04-20T12:22:17Z</time>
      </trkpt>
      <trkpt lat="43.9353" lon="2.36699">
        <ele>318.5</ele>
        <time>2016-04-20T12:22:23Z</time>
      </trkpt>
      <trkpt lat="43.93538" lon="2.36707">
        <ele>317.3</ele>
        <time>2016-04-20T12:22:31Z</time>
      </trkpt>
      <trkpt lat="43.93546" lon="2.36715">
        <ele>316.4</ele>
        <time>2016-04-20T12:22:40Z</time>
      </trkpt>
      <trkpt lat="43.93554" lon="2.36725">
        <ele>316</ele>
        <time>2016-04-20T12:22:47Z</time>
      </trkpt>
      <trkpt lat="43.93562" lon="2.36732">
        <ele>315.7</ele>
        <time>2016-04-20T12:22:52Z</time>
      </trkpt>
      <trkpt lat="43.93567" lon="2.36743">
        <ele>315.3</ele>
        <time>2016-04-20T12:23:00Z</time>
      </trkpt>
      <trkpt lat="43.93574" lon="2.3675">
        <ele>314.8</ele>
        <time>2016-04-20T12:23:09Z</time>
      </trkpt>
      <trkpt lat="43.93584" lon="2.36758">
        <ele>313.2</ele>
        <time>2016-04-20T12:24:46Z</time>
      </trkpt>
      <trkpt lat="43.93581" lon="2.36746">
        <ele>313</ele>
        <time>2016-04-20T12:24:58Z</time>
      </trkpt>
      <trkpt lat="43.93573" lon="2.3674">
        <ele>312.2</ele>
        <time>2016-04-20T12:25:12Z</time>
      </trkpt>
      <trkpt lat="43.93565" lon="2.36733">
        <ele>311.3</ele>
        <time>2016-04-20T12:25:23Z</time>
      </trkpt>
      <trkpt lat="43.9356" lon="2.36721">
        <ele>310.9</ele>
        <time>2016-04-20T12:25:33Z</time>
      </trkpt>
      <trkpt lat="43.93553" lon="2.36713">
        <ele>310.4</ele>
        <time>2016-04-20T12:25:44Z</time>
      </trkpt>
      <trkpt lat="43.93547" lon="2.36703">
        <ele>310.2</ele>
        <time>2016-04-20T12:25:51Z</time>
      </trkpt>
      <trkpt lat="43.93541" lon="2.36692">
        <ele>310</ele>
        <time>2016-04-20T12:25:57Z</time>
      </trkpt>
      <trkpt lat="43.93535" lon="2.36681">
        <ele>309.5</ele>
        <time>2016-04-20T12:26:03Z</time>
      </trkpt>
      <trkpt lat="43.9353" lon="2.3667">
        <ele>308.7</ele>
        <time>2016-04-20T12:26:11Z</time>
      </trkpt>
      <trkpt lat="43.93526" lon="2.36659">
        <ele>307.7</ele>
        <time>2016-04-20T12:26:19Z</time>
      </trkpt>
      <trkpt lat="43.93522" lon="2.36646">
        <ele>306.7</ele>
        <time>2016-04-20T12:26:28Z</time>
      </trkpt>
      <trkpt lat="43.93519" lon="2.36634">
        <ele>305.7</ele>
        <time>2016-04-20T12:26:36Z</time>
      </trkpt>
      <trkpt lat="43.93514" lon="2.36621">
        <ele>304.8</ele>
        <time>2016-04-20T12:26:44Z</time>
      </trkpt>
      <trkpt lat="43.93512" lon="2.36608">
        <ele>304</ele>
        <time>2016-04-20T12:26:52Z</time>
      </trkpt>
      <trkpt lat="43.93511" lon="2.36596">
        <ele>303.4</ele>
        <time>2016-04-20T12:26:59Z</time>
      </trkpt>
      <trkpt lat="43.93513" lon="2.36582">
        <ele>302.4</ele>
        <time>2016-04-20T12:27:06Z</time>
      </trkpt>
      <trkpt lat="43.93514" lon="2.3657">
        <ele>301.7</ele>
        <time>2016-04-20T12:27:13Z</time>
      </trkpt>
      <trkpt lat="43.93515" lon="2.36556">
        <ele>300.9</ele>
        <time>2016-04-20T12:27:21Z</time>
      </trkpt>
      <trkpt lat="43.93516" lon="2.36542">
        <ele>299.7</ele>
        <time>2016-04-20T12:27:30Z</time>
      </trkpt>
      <trkpt lat="43.93518" lon="2.36529">
        <ele>299</ele>
        <time>2016-04-20T12:27:38Z</time>
      </trkpt>
      <trkpt lat="43.93522" lon="2.36517">
        <ele>298</ele>
        <time>2016-04-20T12:27:47Z</time>
      </trkpt>
      <trkpt lat="43.93523" lon="2.36503">
        <ele>297.1</ele>
        <time>2016-04-20T12:27:57Z</time>
      </trkpt>
      <trkpt lat="43.93524" lon="2.36489">
        <ele>296.4</ele>
        <time>2016-04-20T12:28:05Z</time>
      </trkpt>
      <trkpt lat="43.93525" lon="2.36477">
        <ele>295.4</ele>
        <time>2016-04-20T12:28:13Z</time>
      </trkpt>
      <trkpt lat="43.93524" lon="2.36463">
        <ele>294.3</ele>
        <time>2016-04-20T12:28:21Z</time>
      </trkpt>
      <trkpt lat="43.93521" lon="2.36451">
        <ele>293.4</ele>
        <time>2016-04-20T12:28:28Z</time>
      </trkpt>
      <trkpt lat="43.93516" lon="2.3644">
        <ele>292.3</ele>
        <time>2016-04-20T12:28:35Z</time>
      </trkpt>
      <trkpt lat="43.93511" lon="2.36429">
        <ele>291.4</ele>
        <time>2016-04-20T12:28:44Z</time>
      </trkpt>
      <trkpt lat="43.93504" lon="2.3642">
        <ele>290.5</ele>
        <time>2016-04-20T12:28:52Z</time>
      </trkpt>
      <trkpt lat="43.93496" lon="2.36412">
        <ele>290</ele>
        <time>2016-04-20T12:29:02Z</time>
      </trkpt>
      <trkpt lat="43.93487" lon="2.36405">
        <ele>289.9</ele>
        <time>2016-04-20T12:29:13Z</time>
      </trkpt>
      <trkpt lat="43.93478" lon="2.364">
        <ele>289.8</ele>
        <time>2016-04-20T12:29:18Z</time>
      </trkpt>
      <trkpt lat="43.93471" lon="2.3639">
        <ele>289.5</ele>
        <time>2016-04-20T12:29:29Z</time>
      </trkpt>
      <trkpt lat="43.93471" lon="2.36378">
        <ele>289.4</ele>
        <time>2016-04-20T12:29:37Z</time>
      </trkpt>
      <trkpt lat="43.93475" lon="2.36364">
        <ele>289.4</ele>
        <time>2016-04-20T12:29:45Z</time>
      </trkpt>
      <trkpt lat="43.93479" lon="2.36351">
        <ele>289.4</ele>
        <time>2016-04-20T12:29:51Z</time>
      </trkpt>
      <trkpt lat="43.93486" lon="2.36343">
        <ele>289.4</ele>
        <time>2016-04-20T12:29:59Z</time>
      </trkpt>
      <trkpt lat="43.93496" lon="2.3634">
        <ele>289.2</ele>
        <time>2016-04-20T12:30:06Z</time>
      </trkpt>
      <trkpt lat="43.93505" lon="2.36336">
        <ele>288.9</ele>
        <time>2016-04-20T12:30:13Z</time>
      </trkpt>
      <trkpt lat="43.93515" lon="2.36334">
        <ele>288.5</ele>
        <time>2016-04-20T12:30:20Z</time>
      </trkpt>
      <trkpt lat="43.93523" lon="2.36325">
        <ele>287.9</ele>
        <time>2016-04-20T12:30:28Z</time>
      </trkpt>
      <trkpt lat="43.93532" lon="2.36317">
        <ele>286.9</ele>
        <time>2016-04-20T12:30:37Z</time>
      </trkpt>
      <trkpt lat="43.9354" lon="2.3631">
        <ele>285.8</ele>
        <time>2016-04-20T12:30:45Z</time>
      </trkpt>
      <trkpt lat="43.93548" lon="2.36303">
        <ele>284.4</ele>
        <time>2016-04-20T12:30:53Z</time>
      </trkpt>
      <trkpt lat="43.93555" lon="2.36294">
        <ele>283.3</ele>
        <time>2016-04-20T12:31:02Z</time>
      </trkpt>
      <trkpt lat="43.93563" lon="2.36288">
        <ele>282.6</ele>
        <time>2016-04-20T12:31:11Z</time>
      </trkpt>
      <trkpt lat="43.93569" lon="2.36278">
        <ele>281.9</ele>
        <time>2016-04-20T12:31:18Z</time>
      </trkpt>
      <trkpt lat="43.93577" lon="2.36272">
        <ele>281.4</ele>
        <time>2016-04-20T12:31:24Z</time>
      </trkpt>
      <trkpt lat="43.93586" lon="2.36267">
        <ele>281</ele>
        <time>2016-04-20T12:31:32Z</time>
      </trkpt>
      <trkpt lat="43.93594" lon="2.36262">
        <ele>280.2</ele>
        <time>2016-04-20T12:31:41Z</time>
      </trkpt>
      <trkpt lat="43.93601" lon="2.36252">
        <ele>279.4</ele>
        <time>2016-04-20T12:31:50Z</time>
      </trkpt>
      <trkpt lat="43.93609" lon="2.36243">
        <ele>278.7</ele>
        <time>2016-04-20T12:31:58Z</time>
      </trkpt>
      <trkpt lat="43.93615" lon="2.36233">
        <ele>277.9</ele>
        <time>2016-04-20T12:32:06Z</time>
      </trkpt>
      <trkpt lat="43.93622" lon="2.36223">
        <ele>277.3</ele>
        <time>2016-04-20T12:32:14Z</time>
      </trkpt>
      <trkpt lat="43.93628" lon="2.36214">
        <ele>276.7</ele>
        <time>2016-04-20T12:32:21Z</time>
      </trkpt>
      <trkpt lat="43.93636" lon="2.36207">
        <ele>275.5</ele>
        <time>2016-04-20T12:32:30Z</time>
      </trkpt>
      <trkpt lat="43.93642" lon="2.36198">
        <ele>274.6</ele>
        <time>2016-04-20T12:32:37Z</time>
      </trkpt>
      <trkpt lat="43.93649" lon="2.36188">
        <ele>273.7</ele>
        <time>2016-04-20T12:32:45Z</time>
      </trkpt>
      <trkpt lat="43.93656" lon="2.36181">
        <ele>273</ele>
        <time>2016-04-20T12:32:51Z</time>
      </trkpt>
      <trkpt lat="43.93664" lon="2.36173">
        <ele>272</ele>
        <time>2016-04-20T12:32:58Z</time>
      </trkpt>
      <trkpt lat="43.93672" lon="2.36164">
        <ele>270.9</ele>
        <time>2016-04-20T12:33:06Z</time>
      </trkpt>
      <trkpt lat="43.93679" lon="2.36156">
        <ele>269.7</ele>
        <time>2016-04-20T12:33:15Z</time>
      </trkpt>
      <trkpt lat="43.93685" lon="2.36148">
        <ele>269</ele>
        <time>2016-04-20T12:33:24Z</time>
      </trkpt>
      <trkpt lat="43.93692" lon="2.36138">
        <ele>268.1</ele>
        <time>2016-04-20T12:33:30Z</time>
      </trkpt>
      <trkpt lat="43.93699" lon="2.3613">
        <ele>267.1</ele>
        <time>2016-04-20T12:33:38Z</time>
      </trkpt>
      <trkpt lat="43.93707" lon="2.36123">
        <ele>266.4</ele>
        <time>2016-04-20T12:33:45Z</time>
      </trkpt>
      <trkpt lat="43.93715" lon="2.36115">
        <ele>265.6</ele>
        <time>2016-04-20T12:33:52Z</time>
      </trkpt>
      <trkpt lat="43.93723" lon="2.3611">
        <ele>264.5</ele>
        <time>2016-04-20T12:33:59Z</time>
      </trkpt>
      <trkpt lat="43.93733" lon="2.36104">
        <ele>263.5</ele>
        <time>2016-04-20T12:34:06Z</time>
      </trkpt>
      <trkpt lat="43.93741" lon="2.361">
        <ele>262.4</ele>
        <time>2016-04-20T12:34:14Z</time>
      </trkpt>
      <trkpt lat="43.9375" lon="2.36095">
        <ele>261.6</ele>
        <time>2016-04-20T12:34:22Z</time>
      </trkpt>
      <trkpt lat="43.93758" lon="2.36088">
        <ele>260.8</ele>
        <time>2016-04-20T12:34:31Z</time>
      </trkpt>
      <trkpt lat="43.93768" lon="2.36083">
        <ele>260.1</ele>
        <time>2016-04-20T12:34:39Z</time>
      </trkpt>
      <trkpt lat="43.93774" lon="2.36073">
        <ele>259.4</ele>
        <time>2016-04-20T12:34:48Z</time>
      </trkpt>
      <trkpt lat="43.93779" lon="2.36063">
        <ele>258.4</ele>
        <time>2016-04-20T12:34:58Z</time>
      </trkpt>
      <trkpt lat="43.93783" lon="2.3605">
        <ele>257.6</ele>
        <time>2016-04-20T12:35:05Z</time>
      </trkpt>
      <trkpt lat="43.93787" lon="2.36037">
        <ele>256.8</ele>
        <time>2016-04-20T12:35:12Z</time>
      </trkpt>
      <trkpt lat="43.93795" lon="2.3603">
        <ele>255.6</ele>
        <time>2016-04-20T12:35:21Z</time>
      </trkpt>
      <trkpt lat="43.93803" lon="2.36026">
        <ele>254.4</ele>
        <time>2016-04-20T12:35:32Z</time>
      </trkpt>
      <trkpt lat="43.93811" lon="2.36018">
        <ele>253.8</ele>
        <time>2016-04-20T12:35:37Z</time>
      </trkpt>
      <trkpt lat="43.93819" lon="2.3601">
        <ele>253.2</ele>
        <time>2016-04-20T12:35:44Z</time>
      </trkpt>
      <trkpt lat="43.93827" lon="2.36001">
        <ele>252.6</ele>
        <time>2016-04-20T12:35:51Z</time>
      </trkpt>
      <trkpt lat="43.93834" lon="2.35993">
        <ele>252.2</ele>
        <time>2016-04-20T12:35:57Z</time>
      </trkpt>
      <trkpt lat="43.93842" lon="2.35986">
        <ele>251.6</ele>
        <time>2016-04-20T12:36:04Z</time>
      </trkpt>
      <trkpt lat="43.9385" lon="2.35979">
        <ele>250.7</ele>
        <time>2016-04-20T12:36:12Z</time>
      </trkpt>
      <trkpt lat="43.9386" lon="2.35975">
        <ele>249.5</ele>
        <time>2016-04-20T12:36:20Z</time>
      </trkpt>
      <trkpt lat="43.9387" lon="2.35973">
        <ele>248.5</ele>
        <time>2016-04-20T12:36:28Z</time>
      </trkpt>
      <trkpt lat="43.93879" lon="2.3597">
        <ele>247.4</ele>
        <time>2016-04-20T12:36:37Z</time>
      </trkpt>
      <trkpt lat="43.93888" lon="2.35966">
        <ele>246.7</ele>
        <time>2016-04-20T12:36:44Z</time>
      </trkpt>
      <trkpt lat="43.93897" lon="2.35959">
        <ele>245.8</ele>
        <time>2016-04-20T12:36:53Z</time>
      </trkpt>
      <trkpt lat="43.93904" lon="2.35951">
        <ele>245.1</ele>
        <time>2016-04-20T12:37:00Z</time>
      </trkpt>
      <trkpt lat="43.93909" lon="2.3594">
        <ele>244.4</ele>
        <time>2016-04-20T12:37:07Z</time>
      </trkpt>
      <trkpt lat="43.9391" lon="2.35927">
        <ele>243.5</ele>
        <time>2016-04-20T12:37:16Z</time>
      </trkpt>
      <trkpt lat="43.9391" lon="2.35914">
        <ele>242.5</ele>
        <time>2016-04-20T12:37:25Z</time>
      </trkpt>
      <trkpt lat="43.93911" lon="2.35901">
        <ele>241.3</ele>
        <time>2016-04-20T12:37:33Z</time>
      </trkpt>
      <trkpt lat="43.93911" lon="2.35888">
        <ele>240</ele>
        <time>2016-04-20T12:37:45Z</time>
      </trkpt>
      <trkpt lat="43.9391" lon="2.35875">
        <ele>239.3</ele>
        <time>2016-04-20T12:37:52Z</time>
      </trkpt>
      <trkpt lat="43.93911" lon="2.35861">
        <ele>238.3</ele>
        <time>2016-04-20T12:38:00Z</time>
      </trkpt>
      <trkpt lat="43.9391" lon="2.35848">
        <ele>237.1</ele>
        <time>2016-04-20T12:38:08Z</time>
      </trkpt>
      <trkpt lat="43.93909" lon="2.35835">
        <ele>235.7</ele>
        <time>2016-04-20T12:38:16Z</time>
      </trkpt>
      <trkpt lat="43.93907" lon="2.35822">
        <ele>234.5</ele>
        <time>2016-04-20T12:38:23Z</time>
      </trkpt>
      <trkpt lat="43.93906" lon="2.35809">
        <ele>233.3</ele>
        <time>2016-04-20T12:38:31Z</time>
      </trkpt>
      <trkpt lat="43.93903" lon="2.35795">
        <ele>232</ele>
        <time>2016-04-20T12:38:40Z</time>
      </trkpt>
      <trkpt lat="43.93898" lon="2.35785">
        <ele>230.7</ele>
        <time>2016-04-20T12:38:49Z</time>
      </trkpt>
      <trkpt lat="43.9389" lon="2.35777">
        <ele>229.6</ele>
        <time>2016-04-20T12:38:57Z</time>
      </trkpt>
      <trkpt lat="43.9388" lon="2.35775">
        <ele>228.3</ele>
        <time>2016-04-20T12:39:06Z</time>
      </trkpt>
      <trkpt lat="43.93871" lon="2.35774">
        <ele>227.6</ele>
        <time>2016-04-20T12:39:13Z</time>
      </trkpt>
      <trkpt lat="43.93861" lon="2.35777">
        <ele>227.2</ele>
        <time>2016-04-20T12:39:20Z</time>
      </trkpt>
      <trkpt lat="43.93852" lon="2.35776">
        <ele>226.7</ele>
        <time>2016-04-20T12:39:28Z</time>
      </trkpt>
      <trkpt lat="43.93843" lon="2.35775">
        <ele>226.3</ele>
        <time>2016-04-20T12:39:37Z</time>
      </trkpt>
      <trkpt lat="43.93834" lon="2.35769">
        <ele>225.4</ele>
        <time>2016-04-20T12:39:46Z</time>
      </trkpt>
      <trkpt lat="43.9383" lon="2.35757">
        <ele>225.1</ele>
        <time>2016-04-20T12:39:50Z</time>
      </trkpt>
      <trkpt lat="43.93829" lon="2.35744">
        <ele>224.7</ele>
        <time>2016-04-20T12:39:55Z</time>
      </trkpt>
      <trkpt lat="43.93833" lon="2.35732">
        <ele>224.3</ele>
        <time>2016-04-20T12:40:01Z</time>
      </trkpt>
      <trkpt lat="43.93838" lon="2.35721">
        <ele>224</ele>
        <time>2016-04-20T12:40:08Z</time>
      </trkpt>
      <trkpt lat="43.93846" lon="2.35713">
        <ele>223.7</ele>
        <time>2016-04-20T12:40:15Z</time>
      </trkpt>
      <trkpt lat="43.93854" lon="2.35704">
        <ele>222.8</ele>
        <time>2016-04-20T12:40:22Z</time>
      </trkpt>
      <trkpt lat="43.93863" lon="2.35699">
        <ele>222.1</ele>
        <time>2016-04-20T12:40:30Z</time>
      </trkpt>
      <trkpt lat="43.93872" lon="2.35701">
        <ele>221.3</ele>
        <time>2016-04-20T12:40:36Z</time>
      </trkpt>
      <trkpt lat="43.9388" lon="2.35706">
        <ele>220.4</ele>
        <time>2016-04-20T12:40:42Z</time>
      </trkpt>
      <trkpt lat="43.93888" lon="2.35714">
        <ele>219.3</ele>
        <time>2016-04-20T12:40:51Z</time>
      </trkpt>
      <trkpt lat="43.93896" lon="2.35721">
        <ele>218.3</ele>
        <time>2016-04-20T12:40:59Z</time>
      </trkpt>
      <trkpt lat="43.93903" lon="2.35731">
        <ele>217.3</ele>
        <time>2016-04-20T12:41:08Z</time>
      </trkpt>
      <trkpt lat="43.93909" lon="2.3574">
        <ele>216.4</ele>
        <time>2016-04-20T12:41:16Z</time>
      </trkpt>
      <trkpt lat="43.93917" lon="2.3575">
        <ele>215.6</ele>
        <time>2016-04-20T12:41:23Z</time>
      </trkpt>
      <trkpt lat="43.93922" lon="2.35761">
        <ele>214.7</ele>
        <time>2016-04-20T12:41:30Z</time>
      </trkpt>
      <trkpt lat="43.93927" lon="2.35773">
        <ele>213.9</ele>
        <time>2016-04-20T12:41:38Z</time>
      </trkpt>
      <trkpt lat="43.93931" lon="2.35786">
        <ele>213</ele>
        <time>2016-04-20T12:41:46Z</time>
      </trkpt>
      <trkpt lat="43.93934" lon="2.35798">
        <ele>212.2</ele>
        <time>2016-04-20T12:41:53Z</time>
      </trkpt>
      <trkpt lat="43.93936" lon="2.3581">
        <ele>211.4</ele>
        <time>2016-04-20T12:42:00Z</time>
      </trkpt>
      <trkpt lat="43.93938" lon="2.35824">
        <ele>210.5</ele>
        <time>2016-04-20T12:42:08Z</time>
      </trkpt>
      <trkpt lat="43.93941" lon="2.35836">
        <ele>209.8</ele>
        <time>2016-04-20T12:42:15Z</time>
      </trkpt>
      <trkpt lat="43.93944" lon="2.35848">
        <ele>209.4</ele>
        <time>2016-04-20T12:42:23Z</time>
      </trkpt>
      <trkpt lat="43.93948" lon="2.3586">
        <ele>209</ele>
        <time>2016-04-20T12:42:31Z</time>
      </trkpt>
      <trkpt lat="43.93951" lon="2.35874">
        <ele>208.3</ele>
        <time>2016-04-20T12:42:39Z</time>
      </trkpt>
      <trkpt lat="43.93953" lon="2.35886">
        <ele>207.8</ele>
        <time>2016-04-20T12:42:47Z</time>
      </trkpt>
      <trkpt lat="43.93956" lon="2.35898">
        <ele>207.5</ele>
        <time>2016-04-20T12:42:54Z</time>
      </trkpt>
      <trkpt lat="43.93959" lon="2.35911">
        <ele>207.3</ele>
        <time>2016-04-20T12:43:01Z</time>
      </trkpt>
      <trkpt lat="43.93962" lon="2.35925">
        <ele>207.1</ele>
        <time>2016-04-20T12:43:09Z</time>
      </trkpt>
      <trkpt lat="43.93965" lon="2.35937">
        <ele>206.5</ele>
        <time>2016-04-20T12:43:18Z</time>
      </trkpt>
      <trkpt lat="43.9397" lon="2.35948">
        <ele>206.1</ele>
        <time>2016-04-20T12:43:26Z</time>
      </trkpt>
      <trkpt lat="43.93974" lon="2.3596">
        <ele>205.8</ele>
        <time>2016-04-20T12:43:33Z</time>
      </trkpt>
      <trkpt lat="43.9398" lon="2.35971">
        <ele>205.6</ele>
        <time>2016-04-20T12:43:41Z</time>
      </trkpt>
      <trkpt lat="43.93984" lon="2.35983">
        <ele>205.4</ele>
        <time>2016-04-20T12:43:51Z</time>
      </trkpt>
      <trkpt lat="43.93993" lon="2.35981">
        <ele>201</ele>
        <time>2016-04-20T12:51:17Z</time>
      </trkpt>
      <trkpt lat="43.94003" lon="2.35979">
        <ele>200.7</ele>
        <time>2016-04-20T12:51:28Z</time>
      </trkpt>
      <trkpt lat="43.94012" lon="2.35977">
        <ele>200.4</ele>
        <time>2016-04-20T12:51:40Z</time>
      </trkpt>
      <trkpt lat="43.94021" lon="2.3598">
        <ele>200.3</ele>
        <time>2016-04-20T12:51:46Z</time>
      </trkpt>
      <trkpt lat="43.94026" lon="2.35991">
        <ele>200.2</ele>
        <time>2016-04-20T12:51:54Z</time>
      </trkpt>
      <trkpt lat="43.94031" lon="2.36002">
        <ele>200</ele>
        <time>2016-04-20T12:52:01Z</time>
      </trkpt>
      <trkpt lat="43.94033" lon="2.36015">
        <ele>199.8</ele>
        <time>2016-04-20T12:52:09Z</time>
      </trkpt>
      <trkpt lat="43.94035" lon="2.36028">
        <ele>199.6</ele>
        <time>2016-04-20T12:52:17Z</time>
      </trkpt>
      <trkpt lat="43.94038" lon="2.36041">
        <ele>199.6</ele>
        <time>2016-04-20T12:52:26Z</time>
      </trkpt>
      <trkpt lat="43.9404" lon="2.36055">
        <ele>199.7</ele>
        <time>2016-04-20T12:52:35Z</time>
      </trkpt>
      <trkpt lat="43.94043" lon="2.36067">
        <ele>199.7</ele>
        <time>2016-04-20T12:52:43Z</time>
      </trkpt>
      <trkpt lat="43.94049" lon="2.36077">
        <ele>199.8</ele>
        <time>2016-04-20T12:52:50Z</time>
      </trkpt>
      <trkpt lat="43.94054" lon="2.36088">
        <ele>200</ele>
        <time>2016-04-20T12:52:58Z</time>
      </trkpt>
      <trkpt lat="43.94056" lon="2.361">
        <ele>200.3</ele>
        <time>2016-04-20T12:53:06Z</time>
      </trkpt>
      <trkpt lat="43.94061" lon="2.36111">
        <ele>200.5</ele>
        <time>2016-04-20T12:53:15Z</time>
      </trkpt>
      <trkpt lat="43.94067" lon="2.36122">
        <ele>200.6</ele>
        <time>2016-04-20T12:53:23Z</time>
      </trkpt>
      <trkpt lat="43.94073" lon="2.36133">
        <ele>200.5</ele>
        <time>2016-04-20T12:53:31Z</time>
      </trkpt>
      <trkpt lat="43.94077" lon="2.36146">
        <ele>200.3</ele>
        <time>2016-04-20T12:53:39Z</time>
      </trkpt>
      <trkpt lat="43.94081" lon="2.36157">
        <ele>200.2</ele>
        <time>2016-04-20T12:53:47Z</time>
      </trkpt>
      <trkpt lat="43.94086" lon="2.36169">
        <ele>200.3</ele>
        <time>2016-04-20T12:53:54Z</time>
      </trkpt>
      <trkpt lat="43.94094" lon="2.36178">
        <ele>200.4</ele>
        <time>2016-04-20T12:54:02Z</time>
      </trkpt>
      <trkpt lat="43.94098" lon="2.36189">
        <ele>200.7</ele>
        <time>2016-04-20T12:54:10Z</time>
      </trkpt>
      <trkpt lat="43.94105" lon="2.36199">
        <ele>200.8</ele>
        <time>2016-04-20T12:54:17Z</time>
      </trkpt>
      <trkpt lat="43.94107" lon="2.36211">
        <ele>200.9</ele>
        <time>2016-04-20T12:54:24Z</time>
      </trkpt>
      <trkpt lat="43.94113" lon="2.36222">
        <ele>200.9</ele>
        <time>2016-04-20T12:54:32Z</time>
      </trkpt>
      <trkpt lat="43.94118" lon="2.36233">
        <ele>201</ele>
        <time>2016-04-20T12:54:40Z</time>
      </trkpt>
      <trkpt lat="43.94122" lon="2.36245">
        <ele>201.4</ele>
        <time>2016-04-20T12:54:48Z</time>
      </trkpt>
      <trkpt lat="43.94125" lon="2.36257">
        <ele>201.7</ele>
        <time>2016-04-20T12:54:57Z</time>
      </trkpt>
      <trkpt lat="43.94131" lon="2.36267">
        <ele>201.8</ele>
        <time>2016-04-20T12:55:05Z</time>
      </trkpt>
      <trkpt lat="43.94136" lon="2.36279">
        <ele>201.9</ele>
        <time>2016-04-20T12:55:12Z</time>
      </trkpt>
      <trkpt lat="43.94142" lon="2.36288">
        <ele>201.9</ele>
        <time>2016-04-20T12:55:18Z</time>
      </trkpt>
      <trkpt lat="43.94148" lon="2.36298">
        <ele>201.9</ele>
        <time>2016-04-20T12:55:25Z</time>
      </trkpt>
      <trkpt lat="43.94152" lon="2.36311">
        <ele>201.8</ele>
        <time>2016-04-20T12:55:33Z</time>
      </trkpt>
      <trkpt lat="43.94155" lon="2.36324">
        <ele>201.9</ele>
        <time>2016-04-20T12:55:41Z</time>
      </trkpt>
      <trkpt lat="43.94161" lon="2.36335">
        <ele>202</ele>
        <time>2016-04-20T12:55:49Z</time>
      </trkpt>
      <trkpt lat="43.94167" lon="2.36344">
        <ele>202</ele>
        <time>2016-04-20T12:55:56Z</time>
      </trkpt>
      <trkpt lat="43.94171" lon="2.36355">
        <ele>202</ele>
        <time>2016-04-20T12:56:04Z</time>
      </trkpt>
      <trkpt lat="43.94173" lon="2.36367">
        <ele>202</ele>
        <time>2016-04-20T12:56:11Z</time>
      </trkpt>
      <trkpt lat="43.94179" lon="2.36379">
        <ele>202</ele>
        <time>2016-04-20T12:56:19Z</time>
      </trkpt>
      <trkpt lat="43.94183" lon="2.36391">
        <ele>201.9</ele>
        <time>2016-04-20T12:56:28Z</time>
      </trkpt>
      <trkpt lat="43.94187" lon="2.36404">
        <ele>201.7</ele>
        <time>2016-04-20T12:56:37Z</time>
      </trkpt>
      <trkpt lat="43.9419" lon="2.36417">
        <ele>201.2</ele>
        <time>2016-04-20T12:56:45Z</time>
      </trkpt>
      <trkpt lat="43.94194" lon="2.36429">
        <ele>201</ele>
        <time>2016-04-20T12:56:54Z</time>
      </trkpt>
      <trkpt lat="43.94199" lon="2.36441">
        <ele>200.8</ele>
        <time>2016-04-20T12:57:02Z</time>
      </trkpt>
      <trkpt lat="43.94202" lon="2.36454">
        <ele>200.6</ele>
        <time>2016-04-20T12:57:10Z</time>
      </trkpt>
      <trkpt lat="43.94208" lon="2.36465">
        <ele>200.5</ele>
        <time>2016-04-20T12:57:18Z</time>
      </trkpt>
      <trkpt lat="43.94211" lon="2.36478">
        <ele>200.5</ele>
        <time>2016-04-20T12:57:26Z</time>
      </trkpt>
      <trkpt lat="43.94215" lon="2.3649">
        <ele>200.5</ele>
        <time>2016-04-20T12:57:34Z</time>
      </trkpt>
      <trkpt lat="43.94217" lon="2.36504">
        <ele>200.4</ele>
        <time>2016-04-20T12:57:42Z</time>
      </trkpt>
      <trkpt lat="43.94221" lon="2.36516">
        <ele>200.3</ele>
        <time>2016-04-20T12:57:49Z</time>
      </trkpt>
      <trkpt lat="43.94229" lon="2.36525">
        <ele>200.3</ele>
        <time>2016-04-20T12:57:56Z</time>
      </trkpt>
      <trkpt lat="43.94238" lon="2.36534">
        <ele>200.1</ele>
        <time>2016-04-20T12:58:04Z</time>
      </trkpt>
      <trkpt lat="43.94237" lon="2.36548">
        <ele>199.7</ele>
        <time>2016-04-20T12:58:11Z</time>
      </trkpt>
      <trkpt lat="43.94238" lon="2.3656">
        <ele>199.8</ele>
        <time>2016-04-20T12:58:20Z</time>
      </trkpt>
      <trkpt lat="43.94235" lon="2.36572">
        <ele>199.9</ele>
        <time>2016-04-20T12:58:27Z</time>
      </trkpt>
      <trkpt lat="43.94238" lon="2.36586">
        <ele>199.9</ele>
        <time>2016-04-20T12:58:34Z</time>
      </trkpt>
      <trkpt lat="43.94241" lon="2.36598">
        <ele>199.9</ele>
        <time>2016-04-20T12:58:42Z</time>
      </trkpt>
      <trkpt lat="43.94246" lon="2.3661">
        <ele>199.8</ele>
        <time>2016-04-20T12:58:51Z</time>
      </trkpt>
      <trkpt lat="43.94248" lon="2.36624">
        <ele>199.8</ele>
        <time>2016-04-20T12:59:00Z</time>
      </trkpt>
      <trkpt lat="43.94255" lon="2.36635">
        <ele>199.7</ele>
        <time>2016-04-20T12:59:06Z</time>
      </trkpt>
      <trkpt lat="43.94257" lon="2.36648">
        <ele>199.7</ele>
        <time>2016-04-20T12:59:14Z</time>
      </trkpt>
      <trkpt lat="43.94263" lon="2.36659">
        <ele>199.6</ele>
        <time>2016-04-20T12:59:21Z</time>
      </trkpt>
      <trkpt lat="43.94268" lon="2.3667">
        <ele>199.6</ele>
        <time>2016-04-20T12:59:30Z</time>
      </trkpt>
      <trkpt lat="43.94272" lon="2.36683">
        <ele>199.5</ele>
        <time>2016-04-20T12:59:37Z</time>
      </trkpt>
      <trkpt lat="43.94274" lon="2.36695">
        <ele>199.5</ele>
        <time>2016-04-20T12:59:45Z</time>
      </trkpt>
      <trkpt lat="43.94278" lon="2.36706">
        <ele>199.3</ele>
        <time>2016-04-20T12:59:52Z</time>
      </trkpt>
      <trkpt lat="43.94283" lon="2.36719">
        <ele>199.2</ele>
        <time>2016-04-20T12:59:59Z</time>
      </trkpt>
      <trkpt lat="43.94286" lon="2.36731">
        <ele>199.2</ele>
        <time>2016-04-20T13:00:07Z</time>
      </trkpt>
      <trkpt lat="43.94292" lon="2.36741">
        <ele>199.1</ele>
        <time>2016-04-20T13:00:16Z</time>
      </trkpt>
      <trkpt lat="43.943" lon="2.36751">
        <ele>199.2</ele>
        <time>2016-04-20T13:00:25Z</time>
      </trkpt>
      <trkpt lat="43.94306" lon="2.36761">
        <ele>199.6</ele>
        <time>2016-04-20T13:00:32Z</time>
      </trkpt>
      <trkpt lat="43.94308" lon="2.36774">
        <ele>200.3</ele>
        <time>2016-04-20T13:00:41Z</time>
      </trkpt>
      <trkpt lat="43.94307" lon="2.36787">
        <ele>200.9</ele>
        <time>2016-04-20T13:00:49Z</time>
      </trkpt>
      <trkpt lat="43.94308" lon="2.368">
        <ele>201.4</ele>
        <time>2016-04-20T13:00:57Z</time>
      </trkpt>
      <trkpt lat="43.94308" lon="2.36812">
        <ele>201.8</ele>
        <time>2016-04-20T13:01:06Z</time>
      </trkpt>
      <trkpt lat="43.94307" lon="2.36825">
        <ele>202</ele>
        <time>2016-04-20T13:01:14Z</time>
      </trkpt>
      <trkpt lat="43.94305" lon="2.36838">
        <ele>202.2</ele>
        <time>2016-04-20T13:01:22Z</time>
      </trkpt>
      <trkpt lat="43.94303" lon="2.36851">
        <ele>202.3</ele>
        <time>2016-04-20T13:01:32Z</time>
      </trkpt>
      <trkpt lat="43.94307" lon="2.36863">
        <ele>202.3</ele>
        <time>2016-04-20T13:01:40Z</time>
      </trkpt>
      <trkpt lat="43.9431" lon="2.36876">
        <ele>202.3</ele>
        <time>2016-04-20T13:01:49Z</time>
      </trkpt>
      <trkpt lat="43.9431" lon="2.36889">
        <ele>202.3</ele>
        <time>2016-04-20T13:01:59Z</time>
      </trkpt>
      <trkpt lat="43.94311" lon="2.36901">
        <ele>202.2</ele>
        <time>2016-04-20T13:02:08Z</time>
      </trkpt>
      <trkpt lat="43.94311" lon="2.36915">
        <ele>202.1</ele>
        <time>2016-04-20T13:02:16Z</time>
      </trkpt>
      <trkpt lat="43.94312" lon="2.36928">
        <ele>202.3</ele>
        <time>2016-04-20T13:02:24Z</time>
      </trkpt>
      <trkpt lat="43.94313" lon="2.36942">
        <ele>201.2</ele>
        <time>2016-04-20T13:02:31Z</time>
      </trkpt>
      <trkpt lat="43.94315" lon="2.36955">
        <ele>201.8</ele>
        <time>2016-04-20T13:02:37Z</time>
      </trkpt>
      <trkpt lat="43.94315" lon="2.36968">
        <ele>201.9</ele>
        <time>2016-04-20T13:02:44Z</time>
      </trkpt>
      <trkpt lat="43.94314" lon="2.36981">
        <ele>201.9</ele>
        <time>2016-04-20T13:02:54Z</time>
      </trkpt>
      <trkpt lat="43.94309" lon="2.36993">
        <ele>201.3</ele>
        <time>2016-04-20T13:03:02Z</time>
      </trkpt>
      <trkpt lat="43.94299" lon="2.36999">
        <ele>201.2</ele>
        <time>2016-04-20T13:03:06Z</time>
      </trkpt>
      <trkpt lat="43.94285" lon="2.3701">
        <ele>201.2</ele>
        <time>2016-04-20T13:03:09Z</time>
      </trkpt>
      <trkpt lat="43.94281" lon="2.37022">
        <ele>201.3</ele>
        <time>2016-04-20T13:03:12Z</time>
      </trkpt>
      <trkpt lat="43.94289" lon="2.37037">
        <ele>201.6</ele>
        <time>2016-04-20T13:03:15Z</time>
      </trkpt>
      <trkpt lat="43.94293" lon="2.37049">
        <ele>201.8</ele>
        <time>2016-04-20T13:03:18Z</time>
      </trkpt>
      <trkpt lat="43.943" lon="2.37061">
        <ele>202</ele>
        <time>2016-04-20T13:03:21Z</time>
      </trkpt>
      <trkpt lat="43.94302" lon="2.37074">
        <ele>202.2</ele>
        <time>2016-04-20T13:03:26Z</time>
      </trkpt>
      <trkpt lat="43.94304" lon="2.37087">
        <ele>202.9</ele>
        <time>2016-04-20T13:03:33Z</time>
      </trkpt>
      <trkpt lat="43.94343" lon="2.37553">
        <ele>203.9</ele>
        <time>2016-04-20T13:15:10Z</time>
      </trkpt>
      <trkpt lat="43.94292" lon="2.37721">
        <ele>203</ele>
        <time>2016-04-20T13:15:15Z</time>
      </trkpt>
      <trkpt lat="43.94287" lon="2.3774">
        <ele>203.4</ele>
        <time>2016-04-20T13:15:20Z</time>
      </trkpt>
      <trkpt lat="43.94279" lon="2.37827">
        <ele>203</ele>
        <time>2016-04-20T13:15:29Z</time>
      </trkpt>
      <trkpt lat="43.94272" lon="2.37852">
        <ele>202.8</ele>
        <time>2016-04-20T13:15:34Z</time>
      </trkpt>
      <trkpt lat="43.94265" lon="2.3786">
        <ele>200.7</ele>
        <time>2016-04-20T13:17:53Z</time>
      </trkpt>
      <trkpt lat="43.94275" lon="2.37858">
        <ele>200.3</ele>
        <time>2016-04-20T13:18:26Z</time>
      </trkpt>
      <trkpt lat="43.94284" lon="2.37858">
        <ele>200.1</ele>
        <time>2016-04-20T13:18:44Z</time>
      </trkpt>
      <trkpt lat="43.94291" lon="2.3785">
        <ele>200.3</ele>
        <time>2016-04-20T13:18:53Z</time>
      </trkpt>
      <trkpt lat="43.94299" lon="2.37842">
        <ele>200.4</ele>
        <time>2016-04-20T13:19:00Z</time>
      </trkpt>
      <trkpt lat="43.94308" lon="2.37835">
        <ele>199.8</ele>
        <time>2016-04-20T13:19:10Z</time>
      </trkpt>
      <trkpt lat="43.94316" lon="2.37826">
        <ele>199.4</ele>
        <time>2016-04-20T13:19:16Z</time>
      </trkpt>
      <trkpt lat="43.94324" lon="2.37819">
        <ele>198.7</ele>
        <time>2016-04-20T13:19:24Z</time>
      </trkpt>
      <trkpt lat="43.94332" lon="2.37811">
        <ele>198.5</ele>
        <time>2016-04-20T13:19:37Z</time>
      </trkpt>
      <trkpt lat="43.94339" lon="2.37804">
        <ele>198.8</ele>
        <time>2016-04-20T13:19:43Z</time>
      </trkpt>
      <trkpt lat="43.94348" lon="2.37798">
        <ele>199.8</ele>
        <time>2016-04-20T13:19:57Z</time>
      </trkpt>
      <trkpt lat="43.94356" lon="2.37791">
        <ele>200.9</ele>
        <time>2016-04-20T13:20:06Z</time>
      </trkpt>
      <trkpt lat="43.94362" lon="2.37782">
        <ele>202.6</ele>
        <time>2016-04-20T13:20:17Z</time>
      </trkpt>
      <trkpt lat="43.94368" lon="2.37771">
        <ele>204.4</ele>
        <time>2016-04-20T13:20:29Z</time>
      </trkpt>
      <trkpt lat="43.94377" lon="2.37767">
        <ele>205.4</ele>
        <time>2016-04-20T13:20:36Z</time>
      </trkpt>
      <trkpt lat="43.94385" lon="2.37772">
        <ele>206.7</ele>
        <time>2016-04-20T13:20:55Z</time>
      </trkpt>
      <trkpt lat="43.94394" lon="2.37777">
        <ele>206.8</ele>
        <time>2016-04-20T13:21:04Z</time>
      </trkpt>
      <trkpt lat="43.94401" lon="2.37786">
        <ele>206.8</ele>
        <time>2016-04-20T13:21:11Z</time>
      </trkpt>
      <trkpt lat="43.94409" lon="2.37794">
        <ele>206.3</ele>
        <time>2016-04-20T13:21:21Z</time>
      </trkpt>
      <trkpt lat="43.94418" lon="2.37797">
        <ele>205.3</ele>
        <time>2016-04-20T13:21:31Z</time>
      </trkpt>
      <trkpt lat="43.94428" lon="2.37799">
        <ele>204.8</ele>
        <time>2016-04-20T13:21:39Z</time>
      </trkpt>
      <trkpt lat="43.94437" lon="2.378">
        <ele>204.5</ele>
        <time>2016-04-20T13:21:49Z</time>
      </trkpt>
      <trkpt lat="43.94447" lon="2.37796">
        <ele>204.3</ele>
        <time>2016-04-20T13:21:57Z</time>
      </trkpt>
      <trkpt lat="43.94457" lon="2.37795">
        <ele>204.2</ele>
        <time>2016-04-20T13:22:09Z</time>
      </trkpt>
      <trkpt lat="43.94464" lon="2.37787">
        <ele>204.2</ele>
        <time>2016-04-20T13:22:16Z</time>
      </trkpt>
      <trkpt lat="43.94471" lon="2.37776">
        <ele>204.4</ele>
        <time>2016-04-20T13:22:25Z</time>
      </trkpt>
      <trkpt lat="43.94477" lon="2.37786">
        <ele>204.7</ele>
        <time>2016-04-20T13:22:42Z</time>
      </trkpt>
      <trkpt lat="43.94483" lon="2.37805">
        <ele>204.8</ele>
        <time>2016-04-20T13:22:49Z</time>
      </trkpt>
      <trkpt lat="43.9449" lon="2.37813">
        <ele>205</ele>
        <time>2016-04-20T13:22:57Z</time>
      </trkpt>
      <trkpt lat="43.94498" lon="2.37821">
        <ele>205</ele>
        <time>2016-04-20T13:23:03Z</time>
      </trkpt>
      <trkpt lat="43.94505" lon="2.3783">
        <ele>205</ele>
        <time>2016-04-20T13:23:10Z</time>
      </trkpt>
      <trkpt lat="43.94513" lon="2.37836">
        <ele>204.8</ele>
        <time>2016-04-20T13:23:18Z</time>
      </trkpt>
      <trkpt lat="43.94521" lon="2.37845">
        <ele>204.1</ele>
        <time>2016-04-20T13:23:28Z</time>
      </trkpt>
      <trkpt lat="43.9453" lon="2.37844">
        <ele>203.4</ele>
        <time>2016-04-20T13:23:36Z</time>
      </trkpt>
      <trkpt lat="43.94539" lon="2.37855">
        <ele>202.7</ele>
        <time>2016-04-20T13:23:40Z</time>
      </trkpt>
      <trkpt lat="43.94549" lon="2.37857">
        <ele>200.9</ele>
        <time>2016-04-20T13:23:50Z</time>
      </trkpt>
      <trkpt lat="43.94558" lon="2.37861">
        <ele>200.9</ele>
        <time>2016-04-20T13:24:02Z</time>
      </trkpt>
      <trkpt lat="43.94565" lon="2.37868">
        <ele>199.8</ele>
        <time>2016-04-20T13:24:09Z</time>
      </trkpt>
      <trkpt lat="43.94575" lon="2.37868">
        <ele>198</ele>
        <time>2016-04-20T13:24:22Z</time>
      </trkpt>
      <trkpt lat="43.94585" lon="2.37866">
        <ele>197</ele>
        <time>2016-04-20T13:24:30Z</time>
      </trkpt>
      <trkpt lat="43.94595" lon="2.37864">
        <ele>196</ele>
        <time>2016-04-20T13:24:38Z</time>
      </trkpt>
      <trkpt lat="43.94601" lon="2.37853">
        <ele>195.5</ele>
        <time>2016-04-20T13:24:45Z</time>
      </trkpt>
      <trkpt lat="43.9461" lon="2.37852">
        <ele>194.8</ele>
        <time>2016-04-20T13:24:52Z</time>
      </trkpt>
      <trkpt lat="43.94618" lon="2.3786">
        <ele>194</ele>
        <time>2016-04-20T13:25:09Z</time>
      </trkpt>
      <trkpt lat="43.94628" lon="2.37863">
        <ele>193.7</ele>
        <time>2016-04-20T13:25:18Z</time>
      </trkpt>
      <trkpt lat="43.94637" lon="2.37862">
        <ele>193.5</ele>
        <time>2016-04-20T13:25:27Z</time>
      </trkpt>
      <trkpt lat="43.94646" lon="2.37865">
        <ele>193.4</ele>
        <time>2016-04-20T13:25:38Z</time>
      </trkpt>
      <trkpt lat="43.94655" lon="2.3787">
        <ele>193.3</ele>
        <time>2016-04-20T13:25:49Z</time>
      </trkpt>
      <trkpt lat="43.94664" lon="2.37874">
        <ele>193.2</ele>
        <time>2016-04-20T13:25:56Z</time>
      </trkpt>
      <trkpt lat="43.94674" lon="2.37876">
        <ele>193.2</ele>
        <time>2016-04-20T13:26:03Z</time>
      </trkpt>
      <trkpt lat="43.94683" lon="2.37881">
        <ele>193.1</ele>
        <time>2016-04-20T13:26:12Z</time>
      </trkpt>
      <trkpt lat="43.94691" lon="2.37886">
        <ele>193.2</ele>
        <time>2016-04-20T13:26:28Z</time>
      </trkpt>
      <trkpt lat="43.94692" lon="2.379">
        <ele>191.4</ele>
        <time>2016-04-20T13:27:59Z</time>
      </trkpt>
      <trkpt lat="43.94699" lon="2.37908">
        <ele>192.1</ele>
        <time>2016-04-20T13:28:10Z</time>
      </trkpt>
      <trkpt lat="43.94708" lon="2.37911">
        <ele>194</ele>
        <time>2016-04-20T13:28:25Z</time>
      </trkpt>
      <trkpt lat="43.94716" lon="2.37916">
        <ele>195.4</ele>
        <time>2016-04-20T13:28:35Z</time>
      </trkpt>
      <trkpt lat="43.94725" lon="2.37921">
        <ele>196.8</ele>
        <time>2016-04-20T13:28:44Z</time>
      </trkpt>
      <trkpt lat="43.94735" lon="2.37923">
        <ele>198.3</ele>
        <time>2016-04-20T13:28:55Z</time>
      </trkpt>
      <trkpt lat="43.94745" lon="2.37927">
        <ele>199</ele>
        <time>2016-04-20T13:29:02Z</time>
      </trkpt>
      <trkpt lat="43.94753" lon="2.37919">
        <ele>199.4</ele>
        <time>2016-04-20T13:29:08Z</time>
      </trkpt>
      <trkpt lat="43.94763" lon="2.37916">
        <ele>199.3</ele>
        <time>2016-04-20T13:29:16Z</time>
      </trkpt>
      <trkpt lat="43.94772" lon="2.3792">
        <ele>197.8</ele>
        <time>2016-04-20T13:29:29Z</time>
      </trkpt>
      <trkpt lat="43.94781" lon="2.37926">
        <ele>197.8</ele>
        <time>2016-04-20T13:29:36Z</time>
      </trkpt>
      <trkpt lat="43.94789" lon="2.37935">
        <ele>198.1</ele>
        <time>2016-04-20T13:29:44Z</time>
      </trkpt>
      <trkpt lat="43.94804" lon="2.37933">
        <ele>200.1</ele>
        <time>2016-04-20T13:29:55Z</time>
      </trkpt>
      <trkpt lat="43.94813" lon="2.37938">
        <ele>204.3</ele>
        <time>2016-04-20T13:30:09Z</time>
      </trkpt>
      <trkpt lat="43.94822" lon="2.37942">
        <ele>206.5</ele>
        <time>2016-04-20T13:30:19Z</time>
      </trkpt>
      <trkpt lat="43.94817" lon="2.37953">
        <ele>209.9</ele>
        <time>2016-04-20T13:30:39Z</time>
      </trkpt>
      <trkpt lat="43.9481" lon="2.37961">
        <ele>212.1</ele>
        <time>2016-04-20T13:30:53Z</time>
      </trkpt>
      <trkpt lat="43.94801" lon="2.37956">
        <ele>212.8</ele>
        <time>2016-04-20T13:31:01Z</time>
      </trkpt>
      <trkpt lat="43.94792" lon="2.3796">
        <ele>214.4</ele>
        <time>2016-04-20T13:31:14Z</time>
      </trkpt>
      <trkpt lat="43.94782" lon="2.37962">
        <ele>215.3</ele>
        <time>2016-04-20T13:31:22Z</time>
      </trkpt>
      <trkpt lat="43.94773" lon="2.37965">
        <ele>215.2</ele>
        <time>2016-04-20T13:31:30Z</time>
      </trkpt>
      <trkpt lat="43.94779" lon="2.37975">
        <ele>220.3</ele>
        <time>2016-04-20T13:31:53Z</time>
      </trkpt>
      <trkpt lat="43.94789" lon="2.37978">
        <ele>222.3</ele>
        <time>2016-04-20T13:32:01Z</time>
      </trkpt>
      <trkpt lat="43.94799" lon="2.3798">
        <ele>222.4</ele>
        <time>2016-04-20T13:32:12Z</time>
      </trkpt>
      <trkpt lat="43.94808" lon="2.37986">
        <ele>224.7</ele>
        <time>2016-04-20T13:32:20Z</time>
      </trkpt>
      <trkpt lat="43.94816" lon="2.37991">
        <ele>227.1</ele>
        <time>2016-04-20T13:32:28Z</time>
      </trkpt>
      <trkpt lat="43.94825" lon="2.37996">
        <ele>228.7</ele>
        <time>2016-04-20T13:32:36Z</time>
      </trkpt>
      <trkpt lat="43.94835" lon="2.37997">
        <ele>230.5</ele>
        <time>2016-04-20T13:32:44Z</time>
      </trkpt>
      <trkpt lat="43.94844" lon="2.38">
        <ele>231.9</ele>
        <time>2016-04-20T13:32:50Z</time>
      </trkpt>
      <trkpt lat="43.94854" lon="2.37999">
        <ele>233</ele>
        <time>2016-04-20T13:33:00Z</time>
      </trkpt>
      <trkpt lat="43.94863" lon="2.38001">
        <ele>234.8</ele>
        <time>2016-04-20T13:33:09Z</time>
      </trkpt>
      <trkpt lat="43.94872" lon="2.37999">
        <ele>235.9</ele>
        <time>2016-04-20T13:33:15Z</time>
      </trkpt>
      <trkpt lat="43.94882" lon="2.37996">
        <ele>237.1</ele>
        <time>2016-04-20T13:33:23Z</time>
      </trkpt>
      <trkpt lat="43.94891" lon="2.37998">
        <ele>239.2</ele>
        <time>2016-04-20T13:33:33Z</time>
      </trkpt>
      <trkpt lat="43.949" lon="2.38002">
        <ele>240.6</ele>
        <time>2016-04-20T13:33:41Z</time>
      </trkpt>
      <trkpt lat="43.9491" lon="2.38003">
        <ele>243</ele>
        <time>2016-04-20T13:33:50Z</time>
      </trkpt>
      <trkpt lat="43.94917" lon="2.38011">
        <ele>243.8</ele>
        <time>2016-04-20T13:33:59Z</time>
      </trkpt>
      <trkpt lat="43.94927" lon="2.38013">
        <ele>247.9</ele>
        <time>2016-04-20T13:34:14Z</time>
      </trkpt>
      <trkpt lat="43.94925" lon="2.38025">
        <ele>253.1</ele>
        <time>2016-04-20T13:34:33Z</time>
      </trkpt>
      <trkpt lat="43.94917" lon="2.38033">
        <ele>256.1</ele>
        <time>2016-04-20T13:34:42Z</time>
      </trkpt>
      <trkpt lat="43.94906" lon="2.38034">
        <ele>258.8</ele>
        <time>2016-04-20T13:34:51Z</time>
      </trkpt>
      <trkpt lat="43.94911" lon="2.38045">
        <ele>262</ele>
        <time>2016-04-20T13:35:05Z</time>
      </trkpt>
      <trkpt lat="43.94919" lon="2.38051">
        <ele>263.5</ele>
        <time>2016-04-20T13:35:12Z</time>
      </trkpt>
      <trkpt lat="43.94928" lon="2.38052">
        <ele>265</ele>
        <time>2016-04-20T13:35:21Z</time>
      </trkpt>
      <trkpt lat="43.94937" lon="2.38051">
        <ele>267.5</ele>
        <time>2016-04-20T13:35:30Z</time>
      </trkpt>
      <trkpt lat="43.94948" lon="2.38045">
        <ele>270</ele>
        <time>2016-04-20T13:35:37Z</time>
      </trkpt>
      <trkpt lat="43.94958" lon="2.38045">
        <ele>271.1</ele>
        <time>2016-04-20T13:35:43Z</time>
      </trkpt>
      <trkpt lat="43.94966" lon="2.38049">
        <ele>274.1</ele>
        <time>2016-04-20T13:35:53Z</time>
      </trkpt>
      <trkpt lat="43.94975" lon="2.38052">
        <ele>276.3</ele>
        <time>2016-04-20T13:36:00Z</time>
      </trkpt>
      <trkpt lat="43.94985" lon="2.38055">
        <ele>278</ele>
        <time>2016-04-20T13:36:08Z</time>
      </trkpt>
      <trkpt lat="43.94994" lon="2.38058">
        <ele>279.4</ele>
        <time>2016-04-20T13:36:15Z</time>
      </trkpt>
      <trkpt lat="43.94983" lon="2.38061">
        <ele>284.5</ele>
        <time>2016-04-20T13:37:01Z</time>
      </trkpt>
      <trkpt lat="43.94973" lon="2.38057">
        <ele>284.5</ele>
        <time>2016-04-20T13:37:09Z</time>
      </trkpt>
      <trkpt lat="43.94964" lon="2.38055">
        <ele>284.5</ele>
        <time>2016-04-20T13:37:18Z</time>
      </trkpt>
      <trkpt lat="43.94955" lon="2.38056">
        <ele>284.2</ele>
        <time>2016-04-20T13:37:28Z</time>
      </trkpt>
      <trkpt lat="43.94953" lon="2.38069">
        <ele>284.2</ele>
        <time>2016-04-20T13:37:36Z</time>
      </trkpt>
      <trkpt lat="43.94954" lon="2.38083">
        <ele>285</ele>
        <time>2016-04-20T13:37:43Z</time>
      </trkpt>
      <trkpt lat="43.94946" lon="2.38078">
        <ele>289.1</ele>
        <time>2016-04-20T13:38:22Z</time>
      </trkpt>
      <trkpt lat="43.94945" lon="2.38077">
        <ele>290.2</ele>
        <time>2016-04-20T13:38:40Z</time>
      </trkpt>
    </trkseg>
  </trk>
</gpx>